TNCC/CUR METAR and TAF weather

Enter ICAO airport designator
Station Type Date Time Source
TNCC METAR 2019/10/15 21:00 UTC NOAA

TNCC 152100Z 11011KT 080V140 9999 FEW022 31/23 Q1010 NOSIG=


Station Type Date Time Source
TNCC Decoded METAR 2019/10/15 21:00 UTC NOAA

Hato Airport, Curacao, Netherlands Antilles (TNCC) 12-12N 068-58W 67M
Oct 15, 2019 - 05:00 PM EDT / 2019.10.15 2100 UTC
Wind: from the ESE (110 degrees) at 13 MPH (11 KT) (direction variable):0
Visibility: greater than 7 mile(s):0
Sky conditions: mostly clear
Temperature: 87 F (31 C)
Heat index: 93.9 F (34.4 C):1
Dew Point: 73 F (23 C)
Relative Humidity: 62%
Pressure (altimeter): 29.83 in. Hg (1010 hPa)
ob: TNCC 152100Z 11011KT 080V140 9999 FEW022 31/23 Q1010 NOSIG=
cycle: 21

Station Type Date Time Source
TNCC TAF 2019/10/15 18:57 UTC NOAA

TAF TAF TNCC 151715Z 1518/1618 12012KT 9999 SCT023 PROB30
TEMPO 1612/1616 5000 SHRA SCT012CB BKN014

Example: see airport list